Time;durP1;ratioP1;P1;durP2;ratioP2;P2;SDS_P1;SDS_P2;PMS_P1;PMS_P2;Temp;Humidity;BMP_temperature;BMP_pressure;BME280_temperature;BME280_humidity;BME280_pressure;Samples;Min_cycle;Max_cycle;Signal;HPM_P1;HPM_P2
2024/03/01 00:01:04;;;;;;;21.83;15.20;;;8.50;99.90;;;;;;5088441;28;20245;-70
2024/03/01 00:03:31;;;;;;;23.57;15.27;;;8.50;99.90;;;;;;5088045;28;20238;-71
2024/03/01 00:05:57;;;;;;;25.33;16.73;;;8.50;99.90;;;;;;5088076;28;20210;-71
2024/03/01 00:08:24;;;;;;;25.50;16.37;;;8.60;99.90;;;;;;5087524;28;20332;-70
2024/03/01 00:10:51;;;;;;;24.33;16.53;;;8.60;99.90;;;;;;5087810;28;20211;-72
2024/03/01 00:13:18;;;;;;;28.27;17.63;;;8.50;99.90;;;;;;5087602;28;20598;-72
2024/03/01 00:15:45;;;;;;;27.17;17.00;;;8.50;99.90;;;;;;5087809;28;20293;-72
2024/03/01 00:18:13;;;;;;;25.30;16.83;;;8.50;99.90;;;;;;5087805;28;20260;-72
2024/03/01 00:20:40;;;;;;;28.27;17.67;;;8.40;99.90;;;;;;5088063;28;20262;-71
2024/03/01 00:23:07;;;;;;;23.60;16.17;;;8.50;99.90;;;;;;5087342;28;20298;-71
2024/03/01 00:25:34;;;;;;;28.23;17.83;;;8.40;99.90;;;;;;5079456;28;20634;-71
2024/03/01 00:28:00;;;;;;;26.23;17.33;;;8.40;99.90;;;;;;5087910;28;20226;-71
2024/03/01 00:30:27;;;;;;;27.70;18.27;;;8.40;99.90;;;;;;5087313;28;20659;-71
2024/03/01 00:32:54;;;;;;;28.40;17.70;;;8.40;99.90;;;;;;5087559;28;20254;-71
2024/03/01 00:35:23;;;;;;;28.30;18.03;;;8.40;99.90;;;;;;5087358;28;20736;-70
2024/03/01 00:37:50;;;;;;;26.57;17.53;;;8.30;99.90;;;;;;5086963;28;20207;-70
2024/03/01 00:40:17;;;;;;;26.43;17.33;;;8.40;99.90;;;;;;5086777;28;20294;-70
2024/03/01 00:42:44;;;;;;;26.80;18.13;;;8.30;99.90;;;;;;5087572;28;20198;-70
2024/03/01 00:45:10;;;;;;;29.07;17.73;;;8.30;99.90;;;;;;5087317;28;20207;-70
2024/03/01 00:47:44;;;;;;;25.90;17.23;;;8.30;99.90;;;;;;5087386;28;20388;-70
2024/03/01 00:50:11;;;;;;;26.00;17.33;;;8.30;99.90;;;;;;5087118;28;20210;-70
2024/03/01 00:52:39;;;;;;;28.47;18.13;;;8.30;99.90;;;;;;5086897;28;20217;-70
2024/03/01 00:55:07;;;;;;;30.67;18.63;;;8.30;99.90;;;;;;5087319;28;20229;-70
2024/03/01 00:57:34;;;;;;;27.20;18.47;;;8.30;99.90;;;;;;5087101;28;20311;-70
2024/03/01 01:00:01;;;;;;;28.93;17.83;;;8.30;99.90;;;;;;5086753;28;20298;-70
2024/03/01 01:02:28;;;;;;;31.57;18.53;;;8.20;99.90;;;;;;5086316;28;20330;-70
2024/03/01 01:04:54;;;;;;;28.37;18.77;;;8.20;99.90;;;;;;5086710;28;20234;-70
2024/03/01 01:07:21;;;;;;;29.73;18.67;;;8.20;99.90;;;;;;5086782;28;20217;-70
2024/03/01 01:09:49;;;;;;;28.07;18.40;;;8.20;99.90;;;;;;5087220;28;20285;-70
2024/03/01 01:12:16;;;;;;;29.50;18.70;;;8.20;99.90;;;;;;5085858;28;20742;-70
2024/03/01 01:14:43;;;;;;;31.37;19.87;;;8.20;99.90;;;;;;5086632;28;20207;-70
2024/03/01 01:17:11;;;;;;;30.00;19.27;;;8.20;99.90;;;;;;5086957;28;20206;-72
2024/03/01 01:19:38;;;;;;;30.73;19.07;;;8.20;99.90;;;;;;5086516;28;20209;-72
2024/03/01 01:22:04;;;;;;;31.33;19.40;;;8.20;99.90;;;;;;5086663;28;20222;-72
2024/03/01 01:24:31;;;;;;;30.73;19.67;;;8.20;99.90;;;;;;5086640;28;20250;-72
2024/03/01 01:27:00;;;;;;;34.80;20.07;;;8.10;99.90;;;;;;5086614;28;20238;-72
2024/03/01 01:29:27;;;;;;;36.20;20.73;;;8.10;99.90;;;;;;5086671;28;20206;-72
2024/03/01 01:31:54;;;;;;;36.37;21.57;;;8.10;99.90;;;;;;5086373;28;20661;-72
2024/03/01 01:34:21;;;;;;;34.70;21.63;;;8.10;99.90;;;;;;5086753;28;20213;-72
2024/03/01 01:36:48;;;;;;;37.93;22.50;;;8.10;99.90;;;;;;5086309;28;20210;-72
2024/03/01 01:39:15;;;;;;;37.73;21.60;;;8.10;99.90;;;;;;5086785;28;20256;-72
2024/03/01 01:41:42;;;;;;;37.50;22.53;;;8.10;99.90;;;;;;5086545;28;20234;-70
2024/03/01 01:44:10;;;;;;;35.47;20.20;;;8.10;99.90;;;;;;5086247;28;20253;-71
2024/03/01 01:46:37;;;;;;;37.23;22.13;;;8.10;99.90;;;;;;5085978;28;20230;-71
2024/03/01 01:49:04;;;;;;;39.47;21.20;;;8.10;99.90;;;;;;5086106;28;21026;-70
2024/03/01 01:51:32;;;;;;;38.67;21.23;;;8.10;99.90;;;;;;5089923;28;20207;-71
2024/03/01 01:53:59;;;;;;;38.27;22.43;;;8.00;99.90;;;;;;5090651;28;20262;-71
2024/03/01 01:56:26;;;;;;;37.47;21.43;;;8.00;99.90;;;;;;5090432;28;20271;-71
2024/03/01 01:58:54;;;;;;;38.97;22.70;;;8.00;99.90;;;;;;5090217;28;20264;-71
2024/03/01 02:01:23;;;;;;;39.80;22.00;;;8.00;99.90;;;;;;5090383;28;20237;-71
2024/03/01 02:03:51;;;;;;;43.67;23.77;;;8.00;99.90;;;;;;5089957;28;20252;-71
2024/03/01 02:06:20;;;;;;;41.57;23.50;;;7.90;99.90;;;;;;5089912;28;20211;-70
2024/03/01 02:08:48;;;;;;;42.17;23.50;;;7.90;99.90;;;;;;5090230;28;20751;-70
2024/03/01 02:11:15;;;;;;;41.00;23.17;;;7.90;99.90;;;;;;5089837;28;20203;-71
2024/03/01 02:13:42;;;;;;;49.23;25.07;;;8.00;99.90;;;;;;5090001;28;20230;-71
2024/03/01 02:16:09;;;;;;;41.03;23.23;;;7.90;99.90;;;;;;5090353;28;20636;-71
2024/03/01 02:18:38;;;;;;;48.97;25.40;;;8.00;99.90;;;;;;5084517;28;21054;-70
2024/03/01 02:21:10;;;;;;;45.00;23.80;;;8.00;99.90;;;;;;5069722;28;20203;-71
2024/03/01 02:23:38;;;;;;;53.27;25.87;;;8.00;99.90;;;;;;5069775;28;20232;-72
2024/03/01 02:26:05;;;;;;;49.27;25.43;;;7.90;99.90;;;;;;5069581;28;20304;-72
2024/03/01 02:28:33;;;;;;;48.27;25.43;;;7.90;99.90;;;;;;5085948;28;20210;-72
2024/03/01 02:30:59;;;;;;;46.20;26.03;;;7.90;99.90;;;;;;5090194;28;20404;-72
2024/03/01 02:33:26;;;;;;;46.80;25.20;;;8.00;99.90;;;;;;5089620;28;20771;-72
2024/03/01 02:35:54;;;;;;;52.60;27.67;;;8.00;99.90;;;;;;5090073;28;20203;-71
2024/03/01 02:38:21;;;;;;;51.63;27.07;;;7.90;99.90;;;;;;5089728;28;20289;-71
2024/03/01 02:40:49;;;;;;;52.50;27.17;;;8.00;99.90;;;;;;5089722;28;20199;-71
2024/03/01 02:43:16;;;;;;;51.33;26.97;;;8.00;99.90;;;;;;5080121;28;20596;-71
2024/03/01 02:45:43;;;;;;;52.07;26.20;;;8.00;99.90;;;;;;5074965;28;20203;-71
2024/03/01 02:48:10;;;;;;;53.53;27.23;;;8.00;99.90;;;;;;5089520;28;20306;-71
2024/03/01 02:50:37;;;;;;;55.57;28.47;;;8.00;99.90;;;;;;5089520;28;20638;-71
2024/03/01 02:53:04;;;;;;;57.53;27.33;;;8.00;99.90;;;;;;5089234;28;20663;-71
2024/03/01 02:55:31;;;;;;;52.10;27.33;;;8.00;99.90;;;;;;5089230;28;20211;-71
2024/03/01 02:58:01;;;;;;;53.53;28.33;;;8.00;99.90;;;;;;5089185;28;20246;-71
2024/03/01 03:00:28;;;;;;;52.23;27.43;;;8.00;99.90;;;;;;5089187;28;20294;-71
2024/03/01 03:02:55;;;;;;;58.83;27.77;;;8.00;99.90;;;;;;5088348;28;20230;-71
2024/03/01 03:05:22;;;;;;;53.73;27.93;;;8.00;99.90;;;;;;5068732;28;20294;-71
2024/03/01 03:07:49;;;;;;;54.93;27.23;;;8.00;99.90;;;;;;5068899;28;20210;-71
2024/03/01 03:10:16;;;;;;;59.53;28.07;;;8.00;99.90;;;;;;5070055;28;20215;-71
2024/03/01 03:12:44;;;;;;;58.50;28.40;;;8.00;99.90;;;;;;5088820;28;20239;-71
2024/03/01 03:15:13;;;;;;;56.80;28.27;;;8.00;99.90;;;;;;5088786;28;20210;-71
2024/03/01 03:17:40;;;;;;;53.47;28.53;;;8.00;99.90;;;;;;5089221;28;20203;-71
2024/03/01 03:20:10;;;;;;;57.87;29.43;;;8.00;99.90;;;;;;5088931;28;20207;-71
2024/03/01 03:22:38;;;;;;;59.27;29.77;;;8.00;99.90;;;;;;5088719;28;20248;-71
2024/03/01 03:25:08;;;;;;;56.53;28.77;;;8.00;99.90;;;;;;5089070;28;20211;-71
2024/03/01 03:27:35;;;;;;;57.10;29.70;;;8.10;99.90;;;;;;5088711;28;20677;-70
2024/03/01 03:30:02;;;;;;;60.30;29.73;;;8.00;99.90;;;;;;5088963;28;20206;-72
2024/03/01 03:32:30;;;;;;;55.83;29.43;;;8.00;99.90;;;;;;5087978;28;20757;-72
2024/03/01 03:34:57;;;;;;;57.90;28.97;;;8.00;99.90;;;;;;5088826;28;20566;-71
2024/03/01 03:37:24;;;;;;;63.10;31.43;;;8.00;99.90;;;;;;5088263;28;20213;-71
2024/03/01 03:39:51;;;;;;;52.33;28.87;;;8.00;99.90;;;;;;5088938;28;20242;-71
2024/03/01 03:42:18;;;;;;;57.87;29.33;;;8.00;99.90;;;;;;5088236;28;20300;-71
2024/03/01 03:44:45;;;;;;;62.57;30.00;;;8.00;99.90;;;;;;5088575;28;20234;-71
2024/03/01 03:47:12;;;;;;;55.87;29.50;;;8.00;99.90;;;;;;5088442;28;20285;-71
2024/03/01 03:49:40;;;;;;;59.93;30.90;;;8.00;99.90;;;;;;5088274;28;20575;-70
2024/03/01 03:52:08;;;;;;;62.10;30.37;;;8.00;99.90;;;;;;5087931;28;20272;-71
2024/03/01 03:54:38;;;;;;;54.13;30.40;;;8.00;99.90;;;;;;5088531;28;20293;-71
2024/03/01 03:57:05;;;;;;;63.83;32.20;;;8.00;99.90;;;;;;5088521;28;20218;-71
2024/03/01 03:59:32;;;;;;;60.80;31.87;;;8.00;99.90;;;;;;5087465;28;20289;-70
2024/03/01 04:01:59;;;;;;;61.13;31.73;;;8.00;99.90;;;;;;5088008;28;20234;-72
2024/03/01 04:04:26;;;;;;;56.60;32.23;;;8.00;99.90;;;;;;5087737;28;20669;-72
2024/03/01 04:06:54;;;;;;;68.43;33.53;;;8.00;99.90;;;;;;5087733;28;20228;-71
2024/03/01 04:09:21;;;;;;;62.43;32.77;;;8.00;99.90;;;;;;5087580;28;20209;-70
2024/03/01 04:11:48;;;;;;;62.13;32.43;;;8.00;99.90;;;;;;5087317;28;20210;-70
2024/03/01 04:14:15;;;;;;;61.33;33.20;;;8.00;99.90;;;;;;5086877;28;20223;-70
2024/03/01 04:16:42;;;;;;;66.03;33.20;;;8.00;99.90;;;;;;5087573;28;20246;-70
2024/03/01 04:19:09;;;;;;;61.20;32.53;;;8.00;99.90;;;;;;5087496;28;20239;-70
2024/03/01 04:21:37;;;;;;;65.07;32.83;;;8.10;99.90;;;;;;5087206;28;20206;-70
2024/03/01 04:24:09;;;;;;;62.37;32.57;;;8.10;99.90;;;;;;5087955;28;20210;-71
2024/03/01 04:26:36;;;;;;;68.33;35.00;;;8.10;99.90;;;;;;5087851;28;20278;-72
2024/03/01 04:29:05;;;;;;;65.40;32.97;;;8.10;99.90;;;;;;5087540;28;20290;-71
2024/03/01 04:31:33;;;;;;;63.33;32.83;;;8.10;99.90;;;;;;5087056;28;20203;-71
2024/03/01 04:34:00;;;;;;;67.97;33.63;;;8.10;99.90;;;;;;5087509;28;20614;-71
2024/03/01 04:36:27;;;;;;;66.43;33.53;;;8.10;99.90;;;;;;5067241;28;20288;-71
2024/03/01 04:38:54;;;;;;;65.20;34.67;;;8.10;99.90;;;;;;5078285;28;20293;-71
2024/03/01 04:41:22;;;;;;;67.63;34.37;;;8.10;99.90;;;;;;5087068;28;20242;-71
2024/03/01 04:43:49;;;;;;;66.50;34.90;;;8.10;99.90;;;;;;5087145;28;20918;-71
2024/03/01 04:46:16;;;;;;;69.97;34.57;;;8.10;99.90;;;;;;5087096;28;20325;-71
2024/03/01 04:48:43;;;;;;;66.80;33.73;;;8.10;99.90;;;;;;5086984;28;20213;-71
2024/03/01 04:51:10;;;;;;;66.80;32.73;;;8.10;99.90;;;;;;5086724;28;20298;-71
2024/03/01 04:53:37;;;;;;;67.37;35.23;;;8.10;99.90;;;;;;5087432;28;20217;-71
2024/03/01 04:56:05;;;;;;;68.47;35.57;;;8.10;99.90;;;;;;5087008;28;20293;-71
2024/03/01 04:58:33;;;;;;;70.20;33.53;;;8.10;99.90;;;;;;5086858;28;20290;-71
2024/03/01 05:01:00;;;;;;;70.13;35.03;;;8.10;99.90;;;;;;5087210;28;20217;-70
2024/03/01 05:03:29;;;;;;;69.87;35.30;;;8.10;99.90;;;;;;5086202;28;20230;-70
2024/03/01 05:05:57;;;;;;;69.60;34.53;;;8.20;99.90;;;;;;5087027;28;20297;-71
2024/03/01 05:08:24;;;;;;;69.30;34.50;;;8.10;99.90;;;;;;5086897;28;20218;-70
2024/03/01 05:10:51;;;;;;;68.57;35.20;;;8.10;99.90;;;;;;5087025;28;20309;-70
2024/03/01 05:13:18;;;;;;;63.37;35.63;;;8.10;99.90;;;;;;5086471;28;20349;-71
2024/03/01 05:15:47;;;;;;;71.37;36.30;;;8.10;99.90;;;;;;5087031;28;20206;-70
2024/03/01 05:18:14;;;;;;;71.70;35.67;;;8.10;99.90;;;;;;5087000;28;20297;-71
2024/03/01 05:20:41;;;;;;;73.83;36.13;;;8.10;99.90;;;;;;5087301;28;20290;-70
2024/03/01 05:23:08;;;;;;;69.10;35.73;;;8.10;99.90;;;;;;5086708;28;20238;-70
2024/03/01 05:25:35;;;;;;;70.63;34.67;;;8.10;99.90;;;;;;5086329;28;20969;-71
2024/03/01 05:28:03;;;;;;;72.97;36.80;;;8.10;99.90;;;;;;5086733;28;20297;-71
2024/03/01 05:30:35;;;;;;;70.60;36.27;;;8.10;99.90;;;;;;5086617;28;20210;-70
2024/03/01 05:33:03;;;;;;;68.97;34.93;;;8.10;99.90;;;;;;5086701;28;20241;-70
2024/03/01 05:35:30;;;;;;;66.07;35.53;;;8.10;99.90;;;;;;5086076;28;20675;-70
2024/03/01 05:37:58;;;;;;;68.13;35.73;;;8.10;99.90;;;;;;5066588;28;20203;-70
2024/03/01 05:40:25;;;;;;;70.67;35.90;;;8.10;99.90;;;;;;5066537;28;20207;-70
2024/03/01 05:42:52;;;;;;;65.93;34.43;;;8.10;99.90;;;;;;5066618;28;20227;-70
2024/03/01 05:45:20;;;;;;;67.43;35.00;;;8.10;99.90;;;;;;5071609;28;20205;-71
2024/03/01 05:47:47;;;;;;;76.67;36.77;;;8.20;99.90;;;;;;5086317;28;20199;-71
2024/03/01 05:50:16;;;;;;;78.03;35.87;;;8.10;99.90;;;;;;5086410;28;20202;-70
2024/03/01 05:52:44;;;;;;;72.70;35.00;;;8.10;99.90;;;;;;5082184;28;20207;-70
2024/03/01 05:55:13;;;;;;;72.13;35.97;;;8.20;99.90;;;;;;5084031;28;20290;-70
2024/03/01 05:57:41;;;;;;;67.30;35.37;;;8.20;99.90;;;;;;5085971;28;20210;-70
2024/03/01 06:00:18;;;;;;;70.03;34.93;;;8.20;99.90;;;;;;5086017;28;20207;-70
2024/03/01 06:02:46;;;;;;;68.90;36.43;;;8.20;99.90;;;;;;5084287;28;20782;-70
2024/03/01 06:05:14;;;;;;;67.93;36.13;;;8.20;99.90;;;;;;5085904;28;20576;-72
2024/03/01 06:07:42;;;;;;;68.97;34.40;;;8.20;99.90;;;;;;5083101;28;20311;-72
2024/03/01 06:10:09;;;;;;;71.50;35.87;;;8.20;99.90;;;;;;5086127;28;20660;-72
2024/03/01 06:12:36;;;;;;;68.40;34.57;;;8.20;99.90;;;;;;5086381;28;20677;-72
2024/03/01 06:15:04;;;;;;;64.13;35.03;;;8.20;99.90;;;;;;5086458;28;20301;-72
2024/03/01 06:17:31;;;;;;;67.97;35.07;;;8.20;99.90;;;;;;5086204;28;20203;-69
2024/03/01 06:19:58;;;;;;;65.30;33.80;;;8.10;99.90;;;;;;5086411;28;20203;-72
2024/03/01 06:22:26;;;;;;;67.33;34.40;;;8.20;99.90;;;;;;5085897;28;20278;-72
2024/03/01 06:24:53;;;;;;;68.23;34.20;;;8.10;99.90;;;;;;5086266;28;20824;-71
2024/03/01 06:27:20;;;;;;;72.90;36.27;;;8.10;99.90;;;;;;5078588;28;20290;-71
2024/03/01 06:29:47;;;;;;;68.67;34.37;;;8.10;99.90;;;;;;5085152;28;20207;-71
2024/03/01 06:32:13;;;;;;;74.67;35.57;;;8.10;99.90;;;;;;5083867;28;20223;-70
2024/03/01 06:34:40;;;;;;;68.77;33.67;;;8.10;99.90;;;;;;5083931;28;20206;-71
2024/03/01 06:37:07;;;;;;;79.43;35.77;;;8.20;99.90;;;;;;5085092;28;20301;-71
2024/03/01 06:39:36;;;;;;;63.57;34.03;;;8.20;99.90;;;;;;5087846;28;20229;-71
2024/03/01 06:42:03;;;;;;;71.67;34.90;;;8.20;99.90;;;;;;5088169;28;20215;-71
2024/03/01 06:44:30;;;;;;;77.57;35.20;;;8.20;99.90;;;;;;5071413;28;20701;-71
2024/03/01 06:46:57;;;;;;;78.13;36.83;;;8.20;99.90;;;;;;5067949;28;20294;-69
2024/03/01 06:49:24;;;;;;;71.37;35.63;;;8.20;99.90;;;;;;5082504;28;20290;-71
2024/03/01 06:51:52;;;;;;;66.27;35.23;;;8.20;99.90;;;;;;5087193;28;20685;-70
2024/03/01 06:54:19;;;;;;;74.50;37.27;;;8.20;99.90;;;;;;5087533;28;20297;-71
2024/03/01 06:56:47;;;;;;;74.97;35.77;;;8.20;99.90;;;;;;5087326;28;20741;-71
2024/03/01 06:59:14;;;;;;;72.53;36.53;;;8.20;99.90;;;;;;5087759;28;20297;-71
2024/03/01 07:01:41;;;;;;;75.33;36.43;;;8.20;99.90;;;;;;5087477;28;20206;-71
2024/03/01 07:04:08;;;;;;;70.67;35.30;;;8.20;99.90;;;;;;5087572;28;20353;-71
2024/03/01 07:06:35;;;;;;;68.37;34.97;;;8.20;99.90;;;;;;5087834;28;20218;-70
2024/03/01 07:09:04;;;;;;;73.50;36.73;;;8.20;99.90;;;;;;5087645;28;20243;-70
2024/03/01 07:11:31;;;;;;;79.50;35.43;;;8.20;99.90;;;;;;5087972;28;20637;-71
2024/03/01 07:13:59;;;;;;;71.47;34.67;;;8.20;99.90;;;;;;5087370;28;20245;-73
2024/03/01 07:16:26;;;;;;;72.13;34.93;;;8.20;99.90;;;;;;5087650;28;20333;-72
2024/03/01 07:18:53;;;;;;;72.27;36.50;;;8.20;99.90;;;;;;5087688;28;20213;-72
2024/03/01 07:21:20;;;;;;;68.10;35.93;;;8.20;99.90;;;;;;5086595;28;20199;-72
2024/03/01 07:23:47;;;;;;;69.70;35.33;;;8.20;99.90;;;;;;5086785;28;20222;-72
2024/03/01 07:26:14;;;;;;;72.50;37.43;;;8.20;99.90;;;;;;5087447;28;20209;-72
2024/03/01 07:28:41;;;;;;;72.50;35.07;;;8.20;99.90;;;;;;5088804;28;21065;-72
2024/03/01 07:31:10;;;;;;;74.73;36.03;;;8.30;99.90;;;;;;5088872;28;21033;-72
2024/03/01 07:33:37;;;;;;;70.13;35.07;;;8.30;99.90;;;;;;5089048;28;20266;-72
2024/03/01 07:36:04;;;;;;;71.90;36.40;;;8.30;99.90;;;;;;5088799;28;20235;-71
2024/03/01 07:38:31;;;;;;;70.13;35.60;;;8.30;99.90;;;;;;5087681;28;20284;-71
2024/03/01 07:40:57;;;;;;;69.90;36.33;;;8.30;99.90;;;;;;5087480;28;20651;-71
2024/03/01 07:43:25;;;;;;;68.07;35.57;;;8.30;99.90;;;;;;5087016;28;20266;-71
2024/03/01 07:45:52;;;;;;;71.17;35.53;;;8.30;99.90;;;;;;5088147;28;20249;-72
2024/03/01 07:48:20;;;;;;;67.40;35.07;;;8.30;99.90;;;;;;5088186;28;20917;-71
2024/03/01 07:50:47;;;;;;;71.10;36.23;;;8.30;99.90;;;;;;5088549;28;20203;-71
2024/03/01 07:53:14;;;;;;;68.80;35.27;;;8.30;99.90;;;;;;5087848;28;20726;-71
2024/03/01 07:55:41;;;;;;;68.73;35.57;;;8.40;99.90;;;;;;5088942;28;20295;-71
2024/03/01 07:58:08;;;;;;;70.13;36.47;;;8.40;99.90;;;;;;5088553;28;20322;-71
2024/03/01 08:00:35;;;;;;;73.30;36.03;;;8.40;99.90;;;;;;5088733;28;20203;-71
2024/03/01 08:03:08;;;;;;;68.97;34.43;;;8.40;99.90;;;;;;5088611;28;20287;-71
2024/03/01 08:05:38;;;;;;;72.53;36.20;;;8.40;99.90;;;;;;5088549;28;20233;-71
2024/03/01 08:08:06;;;;;;;65.63;35.47;;;8.40;99.90;;;;;;5088698;28;20214;-71
2024/03/01 08:10:34;;;;;;;66.57;35.70;;;8.40;99.90;;;;;;5088453;28;20290;-71
2024/03/01 08:13:01;;;;;;;63.53;34.40;;;8.30;99.90;;;;;;5082984;28;20617;-71
2024/03/01 08:15:35;;;;;;;68.37;36.40;;;8.30;99.90;;;;;;5068085;28;20242;-71
2024/03/01 08:18:08;;;;;;;70.63;35.17;;;8.40;99.90;;;;;;5068630;28;20287;-71
2024/03/01 08:20:58;;;;;;;64.40;34.73;;;8.40;99.90;;;;;;5087903;28;20709;-71
2024/03/01 08:23:26;;;;;;;67.73;35.33;;;8.40;99.90;;;;;;5082980;28;20318;-71
2024/03/01 08:25:53;;;;;;;66.80;34.37;;;8.40;99.90;;;;;;5088138;28;20260;-71
2024/03/01 08:28:23;;;;;;;74.30;35.23;;;8.40;99.90;;;;;;5087651;28;20210;-71
2024/03/01 08:30:50;;;;;;;62.07;33.83;;;8.40;99.90;;;;;;5087931;28;20234;-71
2024/03/01 08:33:19;;;;;;;66.93;35.13;;;8.40;99.90;;;;;;5087634;28;20227;-71
2024/03/01 08:35:46;;;;;;;65.90;35.37;;;8.30;99.90;;;;;;5087341;28;20203;-71
2024/03/01 08:38:58;;;;;;;64.70;33.90;;;8.30;99.90;;;;;;5087587;28;20310;-71
2024/03/01 08:41:28;;;;;;;61.67;32.20;;;8.40;99.90;;;;;;5066273;28;20210;-72
2024/03/01 08:43:58;;;;;;;54.93;29.67;;;8.40;99.90;;;;;;5087661;28;20273;-71
2024/03/01 08:46:30;;;;;;;49.03;29.43;;;8.50;99.90;;;;;;5087420;28;20210;-71
2024/03/01 08:48:57;;;;;;;53.07;29.03;;;8.50;99.90;;;;;;5087639;28;20251;-71
2024/03/01 08:51:25;;;;;;;49.07;28.30;;;8.60;99.90;;;;;;5086793;28;20218;-72
2024/03/01 08:53:58;;;;;;;49.50;29.80;;;8.70;99.90;;;;;;5087363;28;20211;-72
2024/03/01 08:56:39;;;;;;;49.80;29.40;;;8.70;99.90;;;;;;5087788;28;20245;-71
2024/03/01 08:59:34;;;;;;;50.93;30.20;;;8.80;99.90;;;;;;5087344;28;20229;-71
2024/03/01 09:02:01;;;;;;;51.30;28.10;;;8.80;99.90;;;;;;5078375;28;20294;-71
2024/03/01 09:04:31;;;;;;;43.73;26.73;;;8.90;99.90;;;;;;5086717;28;20668;-71
2024/03/01 09:07:14;;;;;;;45.00;27.43;;;8.90;99.90;;;;;;5087168;28;20252;-71
2024/03/01 09:09:43;;;;;;;49.13;29.37;;;8.90;99.90;;;;;;5086899;28;20764;-71
2024/03/01 09:12:19;;;;;;;44.00;26.83;;;8.90;99.90;;;;;;5086721;28;20679;-72
2024/03/01 09:14:46;;;;;;;38.27;25.07;;;8.80;99.90;;;;;;5087009;28;20264;-71
2024/03/01 09:17:15;;;;;;;42.87;24.93;;;8.80;99.90;;;;;;5086959;28;20290;-71
2024/03/01 09:19:47;;;;;;;44.37;25.33;;;8.80;99.90;;;;;;5086723;28;20206;-72
2024/03/01 09:22:16;;;;;;;39.40;24.53;;;8.90;99.90;;;;;;5086416;28;20919;-71
2024/03/01 09:24:44;;;;;;;39.70;24.70;;;9.00;99.90;;;;;;5085391;28;20286;-71
2024/03/01 09:27:26;;;;;;;41.27;24.10;;;9.10;99.90;;;;;;5086839;28;20206;-71
2024/03/01 09:29:53;;;;;;;42.83;26.23;;;9.20;99.90;;;;;;5087025;28;20218;-71
2024/03/01 09:32:23;;;;;;;37.03;24.03;;;9.40;99.90;;;;;;5086754;28;20313;-71
2024/03/01 09:34:51;;;;;;;33.37;22.30;;;9.50;99.90;;;;;;5086587;28;20198;-72
2024/03/01 09:37:21;;;;;;;36.30;22.70;;;9.60;99.90;;;;;;5085826;28;20221;-72
2024/03/01 09:39:48;;;;;;;35.13;22.83;;;9.70;99.90;;;;;;5086750;28;20195;-72
2024/03/01 09:42:38;;;;;;;33.70;23.67;;;9.80;99.90;;;;;;5086819;28;20215;-72
2024/03/01 09:45:32;;;;;;;34.37;21.70;;;9.90;99.90;;;;;;5086589;28;20253;-71
2024/03/01 09:48:16;;;;;;;32.73;22.43;;;10.00;99.90;;;;;;5086234;28;20202;-73
2024/03/01 09:50:55;;;;;;;32.40;22.50;;;10.10;99.90;;;;;;5074777;28;20205;-70
2024/03/01 09:53:38;;;;;;;32.07;21.23;;;10.20;99.90;;;;;;5084727;28;20732;-73
2024/03/01 09:56:19;;;;;;;28.80;20.77;;;10.20;99.90;;;;;;5086109;28;20191;-74
2024/03/01 09:59:00;;;;;;;33.33;20.57;;;10.20;99.90;;;;;;5085497;28;20203;-75
2024/03/01 10:01:33;;;;;;;29.27;20.07;;;10.30;99.90;;;;;;5086225;28;20191;-71
2024/03/01 10:04:11;;;;;;;29.07;21.30;;;10.40;99.90;;;;;;5084904;28;20219;-71
2024/03/01 10:06:55;;;;;;;29.93;22.13;;;10.50;99.90;;;;;;5085059;28;20825;-70
2024/03/01 10:09:33;;;;;;;29.83;21.37;;;10.60;99.90;;;;;;5082643;28;20720;-71
2024/03/01 10:12:20;;;;;;;33.40;21.57;;;10.70;99.90;;;;;;5073190;28;20322;-71
2024/03/01 10:15:00;;;;;;;28.87;20.90;;;10.80;99.90;;;;;;5079360;28;20205;-71
2024/03/01 10:17:40;;;;;;;27.53;19.33;;;10.80;99.90;;;;;;5089783;28;20726;-71
2024/03/01 10:20:24;;;;;;;24.77;19.23;;;10.80;99.90;;;;;;5089757;28;20203;-71
2024/03/01 10:23:06;;;;;;;29.67;19.23;;;10.80;99.90;;;;;;5083994;28;20191;-71
2024/03/01 10:25:44;;;;;;;27.03;19.20;;;10.80;99.90;;;;;;5087200;28;20211;-72
2024/03/01 10:28:28;;;;;;;26.77;19.60;;;10.70;99.90;;;;;;5089482;28;20202;-71
2024/03/01 10:31:02;;;;;;;25.87;17.63;;;10.50;99.90;;;;;;5088701;28;20561;-71
2024/03/01 10:33:45;;;;;;;26.70;18.40;;;10.60;99.90;;;;;;5086426;28;20306;-74
2024/03/01 10:36:18;;;;;;;24.33;19.07;;;10.50;99.90;;;;;;5089460;28;20218;-72
2024/03/01 10:38:57;;;;;;;27.03;17.97;;;10.60;99.90;;;;;;5088309;28;20191;-70
2024/03/01 10:41:34;;;;;;;23.57;17.13;;;10.60;99.90;;;;;;5082139;28;20253;-71
2024/03/01 10:44:14;;;;;;;27.80;17.97;;;10.70;99.90;;;;;;5085959;28;20671;-70
2024/03/01 10:46:46;;;;;;;24.90;16.57;;;10.70;99.90;;;;;;5069189;28;20844;-72
2024/03/01 10:49:18;;;;;;;24.60;17.50;;;10.80;99.90;;;;;;5079131;28;20210;-71
2024/03/01 10:51:52;;;;;;;27.23;18.60;;;10.80;99.90;;;;;;5088658;28;20282;-71
2024/03/01 10:54:21;;;;;;;23.93;17.73;;;10.80;99.90;;;;;;5089562;28;20244;-72
2024/03/01 10:56:50;;;;;;;24.30;17.30;;;10.80;99.90;;;;;;5088758;28;20230;-71
2024/03/01 10:59:26;;;;;;;24.07;17.40;;;10.70;99.90;;;;;;5089621;28;20665;-71
2024/03/01 11:02:00;;;;;;;24.27;16.53;;;10.70;99.90;;;;;;5090364;28;20217;-71
2024/03/01 11:04:35;;;;;;;27.33;17.10;;;10.60;99.90;;;;;;5089814;28;20222;-71
2024/03/01 11:07:11;;;;;;;22.87;16.93;;;10.60;99.90;;;;;;5089661;28;20307;-71
2024/03/01 11:09:43;;;;;;;22.37;16.57;;;10.50;99.90;;;;;;5089505;28;20256;-71
2024/03/01 11:12:21;;;;;;;23.83;16.30;;;10.60;99.90;;;;;;5088724;28;21105;-72
2024/03/01 11:14:52;;;;;;;24.83;17.27;;;10.70;99.90;;;;;;5089454;28;20763;-71
2024/03/01 11:17:25;;;;;;;25.60;17.43;;;10.70;99.90;;;;;;5088999;28;20286;-71
2024/03/01 11:19:57;;;;;;;22.47;16.30;;;10.80;99.90;;;;;;5089357;28;20269;-71
2024/03/01 11:22:26;;;;;;;24.90;17.80;;;10.80;99.90;;;;;;5088325;28;20231;-71
2024/03/01 11:25:02;;;;;;;26.67;17.67;;;10.90;99.90;;;;;;5088758;28;20234;-71
2024/03/01 11:27:32;;;;;;;29.13;17.50;;;11.00;99.90;;;;;;5089203;28;20279;-71
2024/03/01 11:30:05;;;;;;;25.17;17.80;;;11.00;99.90;;;;;;5078446;28;20757;-71
2024/03/01 11:32:39;;;;;;;24.67;17.90;;;11.10;99.90;;;;;;5088780;28;20313;-71
2024/03/01 11:35:11;;;;;;;23.20;17.27;;;11.10;99.90;;;;;;5088846;28;20191;-71
2024/03/01 11:37:50;;;;;;;29.13;18.40;;;11.10;99.90;;;;;;5088798;28;20191;-71
2024/03/01 11:40:27;;;;;;;26.67;18.90;;;11.10;99.90;;;;;;5088613;28;20202;-71
2024/03/01 11:43:03;;;;;;;27.37;18.63;;;11.10;99.90;;;;;;5068530;28;20955;-71
2024/03/01 11:45:43;;;;;;;28.73;18.80;;;11.10;99.90;;;;;;5074800;28;20311;-71
2024/03/01 11:48:37;;;;;;;30.17;18.43;;;11.10;99.90;;;;;;5088724;28;20282;-71
2024/03/01 11:51:23;;;;;;;24.43;17.57;;;11.20;99.90;;;;;;5088461;28;20562;-71
2024/03/01 11:54:26;;;;;;;26.80;17.30;;;11.10;99.90;;;;;;5088547;28;20210;-71
2024/03/01 11:57:05;;;;;;;25.77;17.70;;;11.10;99.90;;;;;;5088252;28;20202;-71
2024/03/01 11:59:54;;;;;;;23.90;17.50;;;11.10;99.90;;;;;;5088688;28;20746;-71
2024/03/01 12:02:33;;;;;;;28.60;17.73;;;11.20;99.90;;;;;;5068201;28;20283;-71
2024/03/01 12:05:11;;;;;;;25.70;18.70;;;11.20;99.90;;;;;;5068131;28;21020;-71
2024/03/01 12:08:06;;;;;;;25.87;18.83;;;11.20;99.90;;;;;;5068094;28;20619;-71
2024/03/01 12:10:45;;;;;;;25.37;18.57;;;11.30;99.90;;;;;;5064883;28;20266;-71
2024/03/01 12:13:16;;;;;;;28.30;19.07;;;11.30;99.90;;;;;;5067674;28;20310;-71
2024/03/01 12:15:53;;;;;;;27.13;19.13;;;11.30;99.90;;;;;;5068184;28;20196;-71
2024/03/01 12:18:29;;;;;;;30.83;18.90;;;11.30;99.90;;;;;;5071029;28;20289;-71
2024/03/01 12:21:17;;;;;;;24.80;18.20;;;11.40;99.90;;;;;;5088021;28;20566;-71
2024/03/01 12:23:51;;;;;;;28.20;19.67;;;11.40;99.90;;;;;;5087365;28;20619;-71
2024/03/01 12:26:21;;;;;;;29.87;20.20;;;11.40;99.90;;;;;;5087475;28;20230;-71
2024/03/01 12:29:05;;;;;;;27.50;19.50;;;11.30;99.90;;;;;;5087933;28;20230;-71
2024/03/01 12:31:47;;;;;;;30.53;21.43;;;11.30;99.90;;;;;;5087650;28;20227;-71
2024/03/01 12:34:38;;;;;;;44.00;32.40;;;11.30;99.90;;;;;;5077635;28;20206;-71
2024/03/01 12:37:26;;;;;;;35.50;22.00;;;11.30;99.90;;;;;;5071311;28;20206;-71
2024/03/01 12:40:16;;;;;;;28.10;20.03;;;11.30;99.90;;;;;;5087841;28;20282;-71
2024/03/01 12:43:03;;;;;;;26.47;20.00;;;11.30;99.90;;;;;;5087933;28;20277;-71
2024/03/01 12:45:43;;;;;;;28.30;21.13;;;11.30;99.90;;;;;;5087190;28;20310;-71
2024/03/01 12:48:19;;;;;;;30.47;20.27;;;11.30;99.90;;;;;;5087617;28;20222;-71
2024/03/01 12:51:08;;;;;;;25.80;19.23;;;11.30;99.90;;;;;;5087707;28;20267;-71
2024/03/01 12:53:57;;;;;;;28.13;20.10;;;11.30;99.90;;;;;;5087534;28;20201;-71